Time;durP1;ratioP1;P1;durP2;ratioP2;P2;SDS_P1;SDS_P2;PMS_P1;PMS_P2;Temp;Humidity;BMP_temperature;BMP_pressure;BME280_temperature;BME280_humidity;BME280_pressure;Samples;Min_cycle;Max_cycle;Signal;HPM_P1;HPM_P2
2022/05/09 00:02:13;;;;;;;12.40;11.40;;;14.10;99.90;;;;;;6149265;23;20445;-90
2022/05/09 00:04:40;;;;;;;12.30;11.40;;;13.90;99.90;;;;;;6146004;23;20442;-89
2022/05/09 00:07:09;;;;;;;12.40;11.40;;;13.80;99.90;;;;;;6145744;23;20466;-88
2022/05/09 00:09:36;;;;;;;12.00;11.10;;;13.80;99.90;;;;;;6123061;23;20459;-88
2022/05/09 00:12:04;;;;;;;12.43;11.47;;;13.70;99.90;;;;;;6148184;23;20518;-88
2022/05/09 00:14:31;;;;;;;11.83;11.03;;;13.70;99.90;;;;;;6149881;23;20442;-88
2022/05/09 00:16:58;;;;;;;11.90;11.00;;;13.70;99.90;;;;;;6147417;23;20474;-88
2022/05/09 00:19:25;;;;;;;12.20;11.20;;;13.70;99.90;;;;;;6149158;23;20442;-88
2022/05/09 00:21:53;;;;;;;12.70;11.50;;;13.70;99.90;;;;;;6147071;23;20210;-87
2022/05/09 00:24:22;;;;;;;11.73;10.83;;;13.80;99.90;;;;;;6150631;23;20437;-88
2022/05/09 00:26:53;;;;;;;11.73;10.90;;;13.70;99.90;;;;;;6146272;23;20492;-88
2022/05/09 00:29:21;;;;;;;12.27;11.37;;;13.80;99.90;;;;;;6148208;23;20465;-88
2022/05/09 00:31:50;;;;;;;12.13;11.23;;;13.80;99.90;;;;;;6149459;23;21002;-88
2022/05/09 00:34:19;;;;;;;11.90;11.10;;;13.80;99.90;;;;;;6149583;23;20856;-88
2022/05/09 00:36:47;;;;;;;12.00;11.10;;;13.80;99.90;;;;;;6148507;23;20534;-89
2022/05/09 00:39:14;;;;;;;12.20;11.30;;;13.80;99.90;;;;;;6149119;23;20897;-89
2022/05/09 00:41:44;;;;;;;11.57;10.57;;;13.90;99.90;;;;;;6151244;23;20465;-90
2022/05/09 00:44:15;;;;;;;12.10;11.17;;;13.90;99.90;;;;;;6130613;23;20518;-90
2022/05/09 00:46:44;;;;;;;12.18;11.27;;;13.90;99.90;;;;;;6147755;23;20540;-90
2022/05/09 00:49:18;;;;;;;12.57;11.63;;;13.80;99.90;;;;;;6149909;23;20834;-88
2022/05/09 00:51:51;;;;;;;11.50;10.70;;;13.80;99.90;;;;;;6149366;23;20182;-89
2022/05/09 00:54:18;;;;;;;11.60;10.80;;;13.80;99.90;;;;;;6148744;23;20240;-90
2022/05/09 00:56:55;;;;;;;13.37;12.27;;;13.80;99.90;;;;;;6148021;23;20516;-90
2022/05/09 00:59:24;;;;;;;11.73;10.80;;;13.70;99.90;;;;;;6116423;23;20468;-90
2022/05/09 01:01:52;;;;;;;11.90;11.10;;;13.80;99.90;;;;;;6150343;23;20547;-89
2022/05/09 01:04:26;;;;;;;12.50;11.57;;;13.80;99.90;;;;;;6157160;23;20521;-90
2022/05/09 01:06:53;;;;;;;12.20;11.10;;;13.80;99.90;;;;;;6169605;23;20440;-90
2022/05/09 01:09:20;;;;;;;12.13;11.23;;;13.80;99.90;;;;;;6179237;23;20446;-89
2022/05/09 01:11:49;;;;;;;11.43;10.53;;;13.70;99.90;;;;;;6176470;23;20425;-89
2022/05/09 01:14:45;;;;;;;11.52;10.63;;;13.80;99.90;;;;;;6140535;23;20438;-90
2022/05/09 01:17:12;;;;;;;10.97;10.17;;;13.80;99.90;;;;;;6155282;23;20278;-90
2022/05/09 01:19:41;;;;;;;11.27;10.40;;;13.80;99.90;;;;;;6178206;23;20436;-90
2022/05/09 01:22:21;;;;;;;10.40;9.60;;;13.80;99.90;;;;;;6164225;23;20493;-89
2022/05/09 01:24:49;;;;;;;11.17;10.17;;;13.80;99.90;;;;;;6154416;23;20443;-90
2022/05/09 01:27:16;;;;;;;10.10;9.30;;;13.90;99.90;;;;;;6155259;23;20445;-89
2022/05/09 01:29:55;;;;;;;10.60;9.80;;;13.90;99.90;;;;;;6181679;23;20480;-90
2022/05/09 01:32:26;;;;;;;9.90;9.10;;;13.90;99.90;;;;;;6170026;23;20190;-89
2022/05/09 01:35:00;;;;;;;9.90;9.20;;;14.00;99.90;;;;;;6155673;23;20784;-94
2022/05/09 01:37:32;;;;;;;10.90;10.10;;;14.00;99.90;;;;;;6150543;23;20549;-90
2022/05/09 01:39:59;;;;;;;10.57;9.80;;;14.00;99.90;;;;;;6141248;23;20475;-90
2022/05/09 01:42:27;;;;;;;10.27;9.47;;;14.00;99.90;;;;;;6149975;23;20442;-91
2022/05/09 01:44:55;;;;;;;10.33;9.53;;;14.00;99.90;;;;;;6148891;23;20533;-91
2022/05/09 01:50:08;;;;;;;9.37;8.67;;;14.10;99.90;;;;;;6148800;23;20441;-91
2022/05/09 01:52:36;;;;;;;11.03;10.13;;;14.10;99.90;;;;;;6148856;23;20989;-89
2022/05/09 01:55:03;;;;;;;10.27;9.47;;;14.00;99.90;;;;;;6146953;23;20828;-88
2022/05/09 01:57:30;;;;;;;11.87;10.87;;;14.00;99.90;;;;;;6149662;23;20889;-89
2022/05/09 01:59:58;;;;;;;10.57;9.80;;;14.00;99.90;;;;;;6149231;23;20446;-89
2022/05/09 02:02:27;;;;;;;11.60;10.60;;;14.00;99.90;;;;;;6149009;23;21015;-89
2022/05/09 02:04:54;;;;;;;11.67;10.67;;;13.90;99.90;;;;;;6142293;23;20524;-89
2022/05/09 02:07:23;;;;;;;11.60;10.70;;;13.90;99.90;;;;;;6147928;23;20523;-89
2022/05/09 02:09:51;;;;;;;11.67;10.77;;;13.90;99.90;;;;;;6148035;23;20437;-90
2022/05/09 02:12:19;;;;;;;11.10;10.40;;;13.80;99.90;;;;;;6148616;23;20492;-89
2022/05/09 02:14:48;;;;;;;12.27;11.37;;;13.80;99.90;;;;;;6145053;23;20496;-89
2022/05/09 02:17:16;;;;;;;13.70;12.53;;;13.70;99.90;;;;;;6145620;23;20469;-89
2022/05/09 02:19:44;;;;;;;12.57;11.60;;;13.70;99.90;;;;;;6148578;23;20465;-90
2022/05/09 02:22:11;;;;;;;12.07;11.00;;;13.60;99.90;;;;;;6149116;23;20446;-89
2022/05/09 02:24:40;;;;;;;11.65;10.70;;;13.60;99.90;;;;;;6144642;23;20441;-90
2022/05/09 02:27:11;;;;;;;11.67;10.77;;;13.60;99.90;;;;;;6149247;23;20235;-90
2022/05/09 02:29:40;;;;;;;12.83;11.83;;;13.60;99.90;;;;;;6148589;23;20445;-91
2022/05/09 02:32:09;;;;;;;12.43;11.43;;;13.50;99.90;;;;;;6146748;23;20464;-90
2022/05/09 02:34:36;;;;;;;12.30;11.40;;;13.40;99.90;;;;;;6147675;23;20459;-91
2022/05/09 02:37:03;;;;;;;12.10;11.20;;;13.40;99.90;;;;;;6157025;23;20254;-91
2022/05/09 02:39:31;;;;;;;11.68;10.77;;;13.40;99.90;;;;;;6160544;23;20284;-90
2022/05/09 02:41:59;;;;;;;11.85;10.95;;;13.40;99.90;;;;;;6141539;23;20546;-91
2022/05/09 02:44:30;;;;;;;11.73;10.93;;;13.40;99.90;;;;;;6148136;23;20187;-92
2022/05/09 02:46:58;;;;;;;12.15;11.00;;;13.40;99.90;;;;;;6136441;23;20234;-90
2022/05/09 02:49:25;;;;;;;11.63;10.70;;;13.40;99.90;;;;;;6151447;23;20213;-90
2022/05/09 02:51:52;;;;;;;12.00;11.10;;;13.40;99.90;;;;;;6149674;23;20452;-91
2022/05/09 02:54:19;;;;;;;12.40;11.40;;;13.40;99.90;;;;;;6149351;23;20187;-92
2022/05/09 02:56:46;;;;;;;11.57;10.73;;;13.40;99.90;;;;;;6149503;23;20257;-93
2022/05/09 02:59:14;;;;;;;11.50;10.70;;;13.40;99.90;;;;;;6149396;23;20837;-90
2022/05/09 03:01:43;;;;;;;11.40;10.50;;;13.30;99.90;;;;;;6138945;23;20184;-90
2022/05/09 03:06:57;;;;;;;12.65;11.55;;;13.20;99.90;;;;;;6147941;23;20548;-91
2022/05/09 03:09:24;;;;;;;12.50;11.50;;;13.20;99.90;;;;;;6150330;23;20699;-92
2022/05/09 03:11:51;;;;;;;12.43;11.52;;;13.10;99.90;;;;;;6149422;23;20471;-92
2022/05/09 03:14:18;;;;;;;12.50;11.60;;;13.10;99.90;;;;;;6148643;23;20214;-93
2022/05/09 03:16:46;;;;;;;13.00;12.00;;;13.10;99.90;;;;;;6147844;23;20993;-93
2022/05/09 03:19:13;;;;;;;13.00;12.00;;;13.00;99.90;;;;;;6146064;23;20195;-92
2022/05/09 03:21:41;;;;;;;12.57;11.68;;;13.00;99.90;;;;;;6142539;23;20259;-92
2022/05/09 03:24:08;;;;;;;12.98;11.88;;;13.10;99.90;;;;;;6150520;23;20240;-91
2022/05/09 03:26:35;;;;;;;13.00;12.02;;;13.00;99.90;;;;;;6157944;23;20198;-92
2022/05/09 03:29:03;;;;;;;13.20;12.20;;;13.00;99.90;;;;;;6149673;23;20233;-92
2022/05/09 03:31:31;;;;;;;12.57;11.57;;;13.00;99.90;;;;;;6140521;23;20187;-92
2022/05/09 03:33:59;;;;;;;13.25;12.25;;;13.10;99.90;;;;;;6137752;23;20183;-90
2022/05/09 03:36:26;;;;;;;12.45;11.55;;;13.00;99.90;;;;;;6148598;23;20246;-90
2022/05/09 03:38:53;;;;;;;12.47;11.57;;;13.00;99.90;;;;;;6149638;23;20244;-86
2022/05/09 03:41:21;;;;;;;12.97;11.97;;;12.90;99.90;;;;;;6140908;23;20520;-91
2022/05/09 03:43:48;;;;;;;13.00;11.90;;;12.90;99.90;;;;;;6144502;23;20462;-90
2022/05/09 03:46:15;;;;;;;12.75;11.75;;;12.90;99.90;;;;;;6146926;23;20211;-89
2022/05/09 03:48:43;;;;;;;13.67;12.53;;;12.90;99.90;;;;;;6142189;23;20222;-90
2022/05/09 03:51:12;;;;;;;13.77;12.45;;;12.80;99.90;;;;;;6140011;23;20466;-89
2022/05/09 03:53:39;;;;;;;12.87;11.97;;;12.80;99.90;;;;;;6138750;23;20187;-89
2022/05/09 03:56:07;;;;;;;14.32;13.15;;;12.80;99.90;;;;;;6146732;23;20974;-89
2022/05/09 03:58:35;;;;;;;13.73;12.65;;;12.80;99.90;;;;;;6146361;23;20191;-90
2022/05/09 04:01:02;;;;;;;13.85;12.75;;;12.70;99.90;;;;;;6144302;23;20218;-89
2022/05/09 04:03:30;;;;;;;13.57;12.47;;;12.70;99.90;;;;;;6146873;23;20191;-89
2022/05/09 04:05:58;;;;;;;13.93;12.83;;;12.70;99.90;;;;;;6144476;23;20603;-89
2022/05/09 04:08:26;;;;;;;14.30;13.20;;;12.70;99.90;;;;;;6154888;23;21039;-90
2022/05/09 04:10:54;;;;;;;13.77;12.77;;;12.70;99.90;;;;;;6151515;23;20225;-86
2022/05/09 04:13:23;;;;;;;15.05;13.75;;;12.70;99.90;;;;;;6146304;23;20626;-89
2022/05/09 04:18:36;;;;;;;13.90;12.80;;;12.70;99.90;;;;;;6140695;23;20513;-86
2022/05/09 04:21:03;;;;;;;14.07;12.90;;;12.70;99.90;;;;;;6148955;23;20238;-87
2022/05/09 04:23:33;;;;;;;14.00;12.80;;;12.80;99.90;;;;;;6175728;23;20198;-87
2022/05/09 04:26:02;;;;;;;14.48;13.38;;;12.80;99.90;;;;;;6170315;23;20214;-87
2022/05/09 04:28:30;;;;;;;15.30;13.90;;;12.80;99.90;;;;;;6150449;23;20534;-89
2022/05/09 04:30:59;;;;;;;14.20;13.10;;;12.80;99.90;;;;;;6141715;23;20183;-89
2022/05/09 04:33:26;;;;;;;14.63;13.50;;;12.80;99.90;;;;;;6139627;23;20221;-88
2022/05/09 04:35:54;;;;;;;13.52;12.52;;;12.90;99.90;;;;;;6139960;23;20203;-88
2022/05/09 04:38:24;;;;;;;15.37;14.07;;;12.90;99.90;;;;;;6142587;23;20238;-86
2022/05/09 04:40:54;;;;;;;14.60;13.40;;;13.00;99.90;;;;;;6146631;23;20441;-86
2022/05/09 04:43:23;;;;;;;16.00;14.70;;;13.00;99.90;;;;;;6136874;23;20179;-87
2022/05/09 04:45:50;;;;;;;15.07;13.83;;;13.10;99.90;;;;;;6117730;23;20487;-84
2022/05/09 04:48:19;;;;;;;16.20;14.80;;;13.10;99.90;;;;;;6133554;23;20442;-89
2022/05/09 04:50:48;;;;;;;15.55;14.38;;;13.20;99.90;;;;;;6142639;23;20449;-88
2022/05/09 04:53:17;;;;;;;17.30;16.10;;;13.30;99.90;;;;;;6144373;23;20187;-88
2022/05/09 04:55:44;;;;;;;16.95;15.57;;;13.30;99.90;;;;;;6133618;23;20207;-88
2022/05/09 04:58:15;;;;;;;16.60;15.20;;;13.40;99.90;;;;;;6139859;23;20241;-89
2022/05/09 05:00:42;;;;;;;14.20;13.10;;;13.50;99.90;;;;;;6145645;23;20822;-88
2022/05/09 05:03:09;;;;;;;14.20;13.20;;;13.50;99.90;;;;;;6142943;23;20437;-88
2022/05/09 05:05:38;;;;;;;14.70;13.50;;;13.60;99.90;;;;;;6141741;23;20545;-89
2022/05/09 05:08:06;;;;;;;15.70;14.50;;;13.70;99.90;;;;;;6137187;23;20475;-88
2022/05/09 05:10:33;;;;;;;13.30;12.30;;;13.70;99.90;;;;;;6142185;23;20445;-89
2022/05/09 05:13:03;;;;;;;15.50;14.30;;;13.80;99.90;;;;;;6138755;23;20446;-89
2022/05/09 05:15:32;;;;;;;14.60;13.50;;;13.90;99.90;;;;;;6145111;23;20841;-89
2022/05/09 05:17:59;;;;;;;13.83;12.83;;;14.00;99.90;;;;;;6144043;23;20483;-89
2022/05/09 05:20:26;;;;;;;15.80;14.50;;;14.00;99.90;;;;;;6141199;23;20456;-89
2022/05/09 05:22:54;;;;;;;15.03;13.83;;;14.10;99.90;;;;;;6143545;23;20523;-87
2022/05/09 05:25:25;;;;;;;14.23;13.20;;;14.10;99.90;;;;;;6141217;23;20650;-87
2022/05/09 05:27:52;;;;;;;14.07;12.97;;;14.20;99.90;;;;;;6149176;23;20471;-88
2022/05/09 05:30:20;;;;;;;13.50;12.53;;;14.30;99.90;;;;;;6136755;23;20491;-88
2022/05/09 05:32:50;;;;;;;13.30;12.30;;;14.30;99.90;;;;;;6149746;23;20440;-88
2022/05/09 05:35:23;;;;;;;14.83;13.73;;;14.40;99.90;;;;;;6151475;23;20495;-88
2022/05/09 05:37:51;;;;;;;14.30;13.20;;;14.50;99.90;;;;;;6141995;23;20465;-87
2022/05/09 05:40:20;;;;;;;13.07;12.07;;;14.60;99.90;;;;;;6160202;23;20436;-87
2022/05/09 05:42:48;;;;;;;14.17;13.07;;;14.70;99.90;;;;;;6150057;23;20925;-87
2022/05/09 05:45:17;;;;;;;14.57;13.47;;;14.80;99.90;;;;;;6147115;23;20467;-87
2022/05/09 05:47:44;;;;;;;13.40;12.30;;;14.80;99.90;;;;;;6140349;23;20653;-88
2022/05/09 05:50:14;;;;;;;13.20;12.20;;;14.90;99.90;;;;;;6136418;23;20435;-88
2022/05/09 05:52:41;;;;;;;13.80;12.80;;;15.00;99.90;;;;;;6145458;23;20439;-88
2022/05/09 05:55:10;;;;;;;13.20;12.20;;;15.00;99.90;;;;;;6145853;23;20958;-87
2022/05/09 05:57:38;;;;;;;14.40;13.20;;;15.10;99.90;;;;;;6146762;23;20491;-88
2022/05/09 06:00:10;;;;;;;13.20;12.10;;;15.20;99.90;;;;;;6149308;23;20532;-88
2022/05/09 06:02:38;;;;;;;14.43;13.30;;;15.30;99.90;;;;;;6142952;23;21295;-88
2022/05/09 06:05:11;;;;;;;14.10;13.10;;;15.40;99.90;;;;;;6143660;23;20456;-88
2022/05/09 06:07:42;;;;;;;12.70;11.80;;;15.50;99.90;;;;;;6140673;23;20446;-88
2022/05/09 06:10:11;;;;;;;13.07;12.07;;;15.60;99.90;;;;;;6147930;23;20460;-83
2022/05/09 06:12:38;;;;;;;12.27;11.37;;;15.70;99.90;;;;;;6147505;23;20511;-86
2022/05/09 06:17:51;;;;;;;12.50;11.60;;;15.80;99.90;;;;;;6135279;23;20468;-86
2022/05/09 06:20:18;;;;;;;12.10;11.23;;;15.90;99.90;;;;;;6122889;23;20439;-86
2022/05/09 06:22:47;;;;;;;13.23;12.33;;;16.00;99.90;;;;;;6144966;23;20979;-85
2022/05/09 06:25:17;;;;;;;12.93;12.03;;;15.90;99.90;;;;;;6120874;23;20458;-86
2022/05/09 06:27:46;;;;;;;13.33;12.33;;;15.90;99.90;;;;;;6126746;23;20433;-87
2022/05/09 06:30:15;;;;;;;13.53;12.53;;;15.90;99.90;;;;;;6121534;23;20433;-86
2022/05/09 06:32:43;;;;;;;12.70;11.77;;;16.00;99.90;;;;;;6146980;23;20534;-86
2022/05/09 06:35:14;;;;;;;12.30;11.30;;;16.10;99.90;;;;;;6150346;23;20456;-86
2022/05/09 06:37:42;;;;;;;11.53;10.73;;;16.20;99.90;;;;;;6144004;23;20468;-86
2022/05/09 06:40:12;;;;;;;11.20;10.30;;;16.30;99.90;;;;;;6121248;23;20508;-86
2022/05/09 06:42:50;;;;;;;11.50;10.70;;;16.50;99.90;;;;;;6133141;23;20447;-86
2022/05/09 06:45:20;;;;;;;13.10;12.00;;;16.70;99.90;;;;;;6148608;23;20452;-86
2022/05/09 06:47:48;;;;;;;11.43;10.43;;;16.70;99.90;;;;;;6145947;23;20469;-86
2022/05/09 06:50:16;;;;;;;10.90;10.10;;;16.80;99.90;;;;;;6121577;23;20434;-87
2022/05/09 06:52:45;;;;;;;10.73;9.70;;;16.90;99.90;;;;;;6129644;23;20781;-86
2022/05/09 06:55:14;;;;;;;9.90;9.20;;;17.00;99.90;;;;;;6128758;23;20543;-86
2022/05/09 06:57:45;;;;;;;9.80;9.10;;;17.20;99.90;;;;;;6144096;23;20456;-87
2022/05/09 07:00:15;;;;;;;9.13;8.47;;;17.30;99.90;;;;;;6134225;23;20476;-86
2022/05/09 07:02:42;;;;;;;9.33;8.50;;;17.40;99.90;;;;;;6152483;23;20432;-86
2022/05/09 07:05:13;;;;;;;9.20;8.50;;;17.30;99.90;;;;;;6151299;23;20456;-86
2022/05/09 07:07:41;;;;;;;9.00;8.30;;;17.50;99.90;;;;;;6155238;23;20441;-86
2022/05/09 07:10:10;;;;;;;7.77;7.27;;;17.80;99.90;;;;;;6149648;23;20432;-86
2022/05/09 07:12:44;;;;;;;8.40;7.80;;;18.10;99.90;;;;;;6170599;23;20545;-86
2022/05/09 07:15:12;;;;;;;8.50;7.93;;;18.60;99.90;;;;;;6167099;23;20475;-87
2022/05/09 07:17:39;;;;;;;8.03;7.43;;;19.10;99.90;;;;;;6180984;23;20460;-86
2022/05/09 07:20:08;;;;;;;8.20;7.70;;;19.80;99.90;;;;;;6148529;23;20441;-87
2022/05/09 07:22:35;;;;;;;8.80;8.20;;;20.40;99.90;;;;;;6174378;23;20441;-86
2022/05/09 07:25:03;;;;;;;8.43;7.83;;;20.70;99.90;;;;;;6156701;23;20467;-86
2022/05/09 07:27:59;;;;;;;7.97;7.47;;;21.30;99.90;;;;;;6166772;23;20435;-87
2022/05/09 07:30:28;;;;;;;8.23;7.57;;;21.80;99.90;;;;;;6137540;23;20440;-87
2022/05/09 07:32:56;;;;;;;7.93;7.43;;;21.80;99.90;;;;;;6163470;23;20429;-86
2022/05/09 07:35:23;;;;;;;8.40;7.77;;;22.00;99.90;;;;;;6180573;23;20455;-87
2022/05/09 07:37:50;;;;;;;7.90;7.27;;;22.70;99.90;;;;;;6180698;23;20503;-86
2022/05/09 07:40:20;;;;;;;7.90;7.20;;;23.30;99.90;;;;;;6180280;23;20512;-87
2022/05/09 07:42:56;;;;;;;8.30;7.70;;;24.00;99.90;;;;;;6173090;23;20460;-87
2022/05/09 07:45:25;;;;;;;8.70;8.10;;;24.20;99.90;;;;;;6155877;23;20543;-87
2022/05/09 07:47:52;;;;;;;7.73;7.13;;;24.00;99.90;;;;;;6154163;23;20448;-87
2022/05/09 07:50:19;;;;;;;8.30;7.70;;;24.50;99.90;;;;;;6137851;23;20437;-87
2022/05/09 07:52:48;;;;;;;7.60;7.10;;;25.00;99.90;;;;;;6124418;23;20425;-87
2022/05/09 07:55:18;;;;;;;9.10;8.30;;;24.60;99.30;;;;;;6136124;23;20496;-86
2022/05/09 07:57:45;;;;;;;8.00;7.40;;;24.50;99.90;;;;;;6150004;23;20473;-83
2022/05/09 08:00:14;;;;;;;7.50;6.90;;;24.50;99.50;;;;;;6139711;23;20498;-86
2022/05/09 08:02:42;;;;;;;7.60;7.00;;;24.40;98.80;;;;;;6148053;23;20440;-87
2022/05/09 08:05:11;;;;;;;7.27;6.77;;;24.30;99.10;;;;;;6148640;23;20460;-87
2022/05/09 08:07:38;;;;;;;7.83;7.23;;;24.30;99.10;;;;;;6151219;23;20428;-89
2022/05/09 08:10:07;;;;;;;7.70;7.17;;;24.70;98.90;;;;;;6149090;23;20455;-90
2022/05/09 08:12:34;;;;;;;8.10;7.33;;;24.90;98.40;;;;;;6151269;23;20433;-89
2022/05/09 08:15:01;;;;;;;7.50;6.90;;;24.70;97.90;;;;;;6150357;23;20491;-93
2022/05/09 08:17:28;;;;;;;7.60;7.00;;;25.20;97.70;;;;;;6137075;23;20441;-89
2022/05/09 08:19:56;;;;;;;7.27;6.63;;;25.90;97.10;;;;;;6139031;23;20952;-90
2022/05/09 08:22:28;;;;;;;7.73;7.23;;;26.50;96.00;;;;;;6122693;23;20988;-92
2022/05/09 08:24:57;;;;;;;8.57;8.03;;;26.40;96.10;;;;;;6140830;23;20914;-89
2022/05/09 08:27:24;;;;;;;7.83;7.33;;;25.70;95.70;;;;;;6150975;23;20447;-86
2022/05/09 08:29:54;;;;;;;6.87;6.47;;;26.10;95.50;;;;;;6144183;23;20471;-86
2022/05/09 08:32:21;;;;;;;7.93;7.33;;;26.70;95.20;;;;;;6149684;23;20527;-86
2022/05/09 08:34:51;;;;;;;7.63;7.13;;;27.50;94.30;;;;;;6132751;23;20582;-85
2022/05/09 08:37:20;;;;;;;7.30;6.80;;;28.20;93.50;;;;;;6150816;23;20437;-85
2022/05/09 08:39:47;;;;;;;6.67;6.27;;;28.40;92.20;;;;;;6153613;23;20507;-87
2022/05/09 08:42:18;;;;;;;6.93;6.43;;;28.60;91.10;;;;;;6161421;23;20433;-83
2022/05/09 08:45:08;;;;;;;6.77;6.17;;;29.10;89.60;;;;;;6150618;23;20452;-82
2022/05/09 08:47:50;;;;;;;6.40;6.00;;;29.20;88.80;;;;;;6139701;23;20443;-90
2022/05/09 08:50:25;;;;;;;6.83;6.37;;;29.80;86.80;;;;;;6150802;23;20441;-82
2022/05/09 08:52:59;;;;;;;6.73;6.13;;;29.90;84.40;;;;;;6152400;23;20466;-87
2022/05/09 08:55:28;;;;;;;7.13;6.53;;;30.20;81.30;;;;;;6148921;23;20490;-87
2022/05/09 08:58:00;;;;;;;6.67;6.07;;;30.50;79.80;;;;;;6130032;23;20516;-87
2022/05/09 09:00:29;;;;;;;6.70;6.30;;;30.60;80.40;;;;;;6126991;23;20471;-88
2022/05/09 09:03:01;;;;;;;6.93;6.43;;;30.70;79.40;;;;;;6122689;23;20438;-89
2022/05/09 09:05:33;;;;;;;5.60;5.20;;;30.50;78.70;;;;;;6139853;23;20518;-88
2022/05/09 09:08:12;;;;;;;7.20;6.60;;;31.10;78.00;;;;;;6121968;23;20469;-88
2022/05/09 09:10:48;;;;;;;6.90;6.40;;;31.20;75.40;;;;;;6151710;23;20463;-86
2022/05/09 09:13:31;;;;;;;7.00;6.50;;;31.10;75.30;;;;;;6147489;23;20476;-88
2022/05/09 09:16:12;;;;;;;6.90;6.40;;;31.00;76.00;;;;;;6141183;23;20491;-89
2022/05/09 09:18:54;;;;;;;6.13;5.73;;;31.00;75.10;;;;;;6149997;23;20473;-85
2022/05/09 09:21:30;;;;;;;6.43;6.03;;;31.10;75.00;;;;;;6133634;23;20916;-84
2022/05/09 09:24:22;;;;;;;8.50;7.40;;;31.20;73.50;;;;;;6126476;23;20468;-85
2022/05/09 09:27:00;;;;;;;7.33;6.80;;;29.50;75.50;;;;;;6149082;23;20433;-84
2022/05/09 09:29:33;;;;;;;7.30;6.73;;;29.00;76.60;;;;;;6148177;23;20451;-84
2022/05/09 09:32:04;;;;;;;7.63;6.93;;;29.10;77.50;;;;;;6127848;23;20437;-87
2022/05/09 09:34:36;;;;;;;6.67;6.27;;;28.90;77.40;;;;;;6145708;23;20531;-86
2022/05/09 09:37:11;;;;;;;7.10;6.60;;;28.40;78.50;;;;;;6136624;23;20491;-86
2022/05/09 09:39:40;;;;;;;6.93;6.43;;;28.50;79.70;;;;;;6148045;23;20571;-86
2022/05/09 09:42:08;;;;;;;6.77;6.33;;;28.80;78.50;;;;;;6149252;23;20551;-86
2022/05/09 09:44:38;;;;;;;7.23;6.67;;;29.20;78.70;;;;;;6146333;23;20440;-84
2022/05/09 09:47:12;;;;;;;7.30;6.80;;;30.10;76.70;;;;;;6152686;23;20452;-86
2022/05/09 09:49:41;;;;;;;6.20;5.80;;;30.10;76.20;;;;;;6148591;23;20429;-85
2022/05/09 09:52:19;;;;;;;6.67;6.23;;;30.50;75.40;;;;;;6129919;23;20467;-85
2022/05/09 09:54:54;;;;;;;7.30;6.77;;;30.70;73.70;;;;;;6147497;23;20551;-84
2022/05/09 09:57:29;;;;;;;7.17;6.77;;;31.20;72.30;;;;;;6149358;23;20440;-83
2022/05/09 09:59:57;;;;;;;6.87;6.37;;;31.10;72.00;;;;;;6148717;23;20589;-92
2022/05/09 10:02:30;;;;;;;6.97;6.57;;;31.40;72.00;;;;;;6151196;23;20461;-95
2022/05/09 10:04:58;;;;;;;8.03;7.43;;;31.10;72.20;;;;;;6162466;23;21129;-96
2022/05/09 10:07:31;;;;;;;7.10;6.60;;;31.10;71.60;;;;;;6161201;23;20500;-90
2022/05/09 10:10:11;;;;;;;6.40;6.00;;;31.10;71.40;;;;;;6171003;23;20443;-88
2022/05/09 10:12:39;;;;;;;6.73;6.10;;;30.80;71.80;;;;;;6153810;23;20464;-76
2022/05/09 10:15:23;;;;;;;6.40;6.00;;;31.30;71.10;;;;;;6148561;23;20536;-77
2022/05/09 10:17:50;;;;;;;6.10;5.70;;;31.20;70.40;;;;;;6127314;23;20436;-78
2022/05/09 10:20:28;;;;;;;6.90;6.50;;;30.70;70.30;;;;;;6150085;23;20464;-78
2022/05/09 10:26:01;;;;;;;5.60;5.30;;;30.50;69.10;;;;;;6145343;23;20468;-77
2022/05/09 10:28:32;;;;;;;6.63;5.90;;;31.00;70.00;;;;;;6111342;23;20888;-83
2022/05/09 10:31:12;;;;;;;5.20;4.90;;;31.40;68.20;;;;;;6150742;23;20472;-81
2022/05/09 10:33:50;;;;;;;7.10;6.40;;;31.30;69.30;;;;;;6147826;23;20541;-81
2022/05/09 10:36:25;;;;;;;5.90;5.40;;;31.80;67.50;;;;;;6150247;23;20488;-80
2022/05/09 10:38:57;;;;;;;6.30;5.90;;;32.70;66.00;;;;;;6148890;23;20471;-80
2022/05/09 10:41:31;;;;;;;6.03;5.63;;;32.80;65.30;;;;;;6149756;23;20955;-80
2022/05/09 10:44:05;;;;;;;5.40;5.10;;;32.50;66.10;;;;;;6139804;23;20464;-81
2022/05/09 10:46:40;;;;;;;5.47;5.07;;;32.70;64.10;;;;;;6148752;23;20453;-82
2022/05/09 10:49:14;;;;;;;5.70;5.30;;;32.30;64.40;;;;;;6149576;23;20589;-81
2022/05/09 10:51:51;;;;;;;5.60;5.20;;;31.80;65.00;;;;;;6148459;23;20444;-80
2022/05/09 10:54:26;;;;;;;5.80;5.40;;;31.80;64.50;;;;;;6141364;23;20440;-80
2022/05/09 10:57:02;;;;;;;5.20;4.90;;;31.60;64.00;;;;;;6150110;23;20444;-80
2022/05/09 10:59:32;;;;;;;5.27;4.97;;;32.20;64.10;;;;;;6147924;23;20466;-80
2022/05/09 11:02:07;;;;;;;5.30;4.90;;;32.60;62.30;;;;;;6145780;23;20927;-81
2022/05/09 11:04:36;;;;;;;5.33;4.93;;;32.40;61.60;;;;;;6117107;23;20510;-80
2022/05/09 11:07:11;;;;;;;6.60;6.10;;;32.10;61.10;;;;;;6120699;23;20433;-80
2022/05/09 11:09:54;;;;;;;5.83;5.33;;;31.60;62.80;;;;;;6142930;23;20518;-80
2022/05/09 11:12:46;;;;;;;4.93;4.63;;;31.90;62.10;;;;;;6144771;23;20438;-81
2022/05/09 11:15:22;;;;;;;4.30;4.00;;;31.60;61.00;;;;;;6148300;23;20467;-82
2022/05/09 11:18:01;;;;;;;5.07;4.77;;;32.00;61.10;;;;;;6122558;23;20437;-82
2022/05/09 11:20:32;;;;;;;5.30;4.90;;;32.50;59.80;;;;;;6150244;23;20467;-81
2022/05/09 11:23:13;;;;;;;4.90;4.60;;;32.60;58.60;;;;;;6138107;23;20525;-81
2022/05/09 11:26:00;;;;;;;4.47;4.20;;;32.50;59.50;;;;;;6120218;23;20528;-81
2022/05/09 11:29:02;;;;;;;5.20;4.80;;;33.00;57.70;;;;;;6124430;23;20441;-81
2022/05/09 11:31:37;;;;;;;4.87;4.40;;;33.00;58.00;;;;;;6124546;23;20447;-81
2022/05/09 11:34:18;;;;;;;4.80;4.47;;;33.40;57.20;;;;;;6126082;23;20464;-81
2022/05/09 11:36:59;;;;;;;4.23;3.93;;;33.10;56.50;;;;;;6133121;23;20433;-81
2022/05/09 11:39:39;;;;;;;4.77;4.37;;;32.40;57.40;;;;;;6147625;23;20539;-81
2022/05/09 11:45:17;;;;;;;4.80;4.40;;;32.00;56.70;;;;;;6142264;23;20514;-81
2022/05/09 11:47:56;;;;;;;3.90;3.60;;;32.10;56.80;;;;;;6141927;23;20441;-81
2022/05/09 11:50:37;;;;;;;4.60;4.27;;;31.70;56.00;;;;;;6142415;23;20429;-81
2022/05/09 11:53:06;;;;;;;4.87;4.50;;;31.60;56.00;;;;;;6143509;23;20476;-81
2022/05/09 11:55:33;;;;;;;4.70;4.40;;;31.20;56.60;;;;;;6119996;23;20537;-81
2022/05/09 11:58:03;;;;;;;4.90;4.60;;;30.80;58.10;;;;;;6132519;23;20784;-82
2022/05/09 12:00:53;;;;;;;4.10;3.80;;;30.40;58.90;;;;;;6131284;23;20476;-81
2022/05/09 12:04:00;;;;;;;4.43;4.13;;;30.30;59.00;;;;;;6147739;23;20527;-80
2022/05/09 12:06:39;;;;;;;4.30;3.90;;;29.70;59.10;;;;;;6149385;23;20433;-79
2022/05/09 12:09:11;;;;;;;4.40;4.20;;;29.70;57.90;;;;;;6150789;23;20440;-81
2022/05/09 12:11:51;;;;;;;5.00;4.60;;;29.30;59.20;;;;;;6150063;23;20482;-81
2022/05/09 12:14:46;;;;;;;4.30;4.03;;;29.20;57.50;;;;;;6133584;23;21002;-81
2022/05/09 12:17:24;;;;;;;4.10;3.80;;;29.30;57.70;;;;;;6129046;23;20463;-81
2022/05/09 12:19:53;;;;;;;4.30;4.00;;;29.10;56.70;;;;;;6149385;23;20456;-81
2022/05/09 12:22:37;;;;;;;4.70;4.30;;;29.40;56.80;;;;;;6148328;23;20988;-81
2022/05/09 12:25:06;;;;;;;4.13;3.90;;;29.30;57.50;;;;;;6121974;23;20466;-81
2022/05/09 12:27:46;;;;;;;3.90;3.60;;;29.40;59.00;;;;;;6142317;23;20456;-80
2022/05/09 12:30:25;;;;;;;4.50;4.00;;;29.20;56.60;;;;;;6122455;23;20965;-81
2022/05/09 12:32:53;;;;;;;4.10;3.80;;;28.90;57.10;;;;;;6127497;23;20440;-82
2022/05/09 12:35:20;;;;;;;4.10;3.80;;;28.90;58.00;;;;;;6138956;23;20452;-81
2022/05/09 12:37:47;;;;;;;4.13;3.87;;;29.30;58.20;;;;;;6134513;23;20871;-82
2022/05/09 12:40:23;;;;;;;4.23;3.93;;;29.50;57.30;;;;;;6142876;23;21222;-82
2022/05/09 12:42:55;;;;;;;4.67;4.20;;;29.70;57.10;;;;;;6144427;23;20493;-82
2022/05/09 12:45:23;;;;;;;4.37;4.07;;;29.90;57.40;;;;;;6144792;23;20448;-81
2022/05/09 12:47:51;;;;;;;4.77;4.37;;;30.20;58.60;;;;;;6135772;23;21598;-82
2022/05/09 12:50:27;;;;;;;4.67;4.37;;;30.30;57.70;;;;;;6134502;23;20434;-82
2022/05/09 12:52:56;;;;;;;4.77;4.47;;;29.50;58.10;;;;;;6145806;23;20468;-82
2022/05/09 12:58:27;;;;;;;4.70;4.20;;;28.60;58.60;;;;;;6135107;23;20444;-81
2022/05/09 13:01:01;;;;;;;4.20;3.90;;;28.50;58.70;;;;;;6145899;23;20467;-81
2022/05/09 13:03:32;;;;;;;4.10;3.90;;;28.90;59.50;;;;;;6136443;23;20522;-81
2022/05/09 13:06:11;;;;;;;4.50;4.20;;;29.20;59.90;;;;;;6146431;23;20514;-77
2022/05/09 13:08:39;;;;;;;4.17;3.97;;;29.30;59.30;;;;;;6127959;23;20990;-78
2022/05/09 13:11:14;;;;;;;4.50;4.20;;;29.20;58.40;;;;;;6128277;23;20451;-78
2022/05/09 13:13:45;;;;;;;4.40;4.10;;;29.30;58.70;;;;;;6147655;23;20428;-81
2022/05/09 13:16:20;;;;;;;4.07;3.77;;;29.60;57.90;;;;;;6143379;23;20926;-83